Impacts TAF Board
For situational awareness. Not to be used for flight planning purposes.
IDs:

KLAX - Los Angeles Intl, CA, US

Issued at 1455 UTC 23 Jan 2019
Updated at 1732 UTC 23 Jan 2019
Potential Impact None Slight Moderate High
Time1653Z 23/18Z 23/19Z 23/20Z 23/21Z 23/22Z 23/23Z 24/00Z 24/01Z 24/02Z 24/03Z 24/04Z 24/05Z 24/06Z>>
Type OBS PRVL PRVL PRVL PRVL PRVL PRVL PRVL PRVL PRVL PRVL PRVL PRVL PRVL
VIS 10 >6 >6 >6 >6 >6 >6 >6 >6 >6 >6 >6 >6 >6
CIG -- -- -- -- -- -- -- -- -- -- -- -- -- --
Cover FEW SKC SKC SKC SKC SKC SKC SKC SKC SKC SKC SKC SKC SKC
FltCat VFR VFR VFR VFR VFR VFR VFR VFR VFR VFR VFR VFR VFR VFR
WX -- -- -- -- -- -- -- -- -- -- -- -- -- --
WDir VRB 70 70 70 260 260 260 260 260 260 260 VRB VRB VRB
WSpd 0 5 5 5 10 10 10 10 10 10 10 3 3 3
WGst -- -- -- -- -- -- -- -- -- -- -- -- -- --
Raw TAF
KLAX 231455Z 2315/2418 07005KT P6SM SKC
  FM232100 26010KT P6SM SKC
  FM240400 VRB03KT P6SM SKC
  FM241000 06004KT P6SM SKC


Raw METAR
KLAX 231653Z 00000KT 10SM FEW060 FEW100 15/M05 A3035 RMK AO2 SLP278 T01501050
KLAX 231553Z 00000KT 10SM FEW055 FEW100 10/M02 A3034 RMK AO2 SLP271 T01001017
KLAX 231453Z 07004KT 10SM FEW050 FEW100 08/M03 A3034 RMK AO2 SLP271 T00831033 51008

METAR Board
Radar Display
Forecast Discussion
For situational awareness. Not to be used for flight planning purposes.